Time;durP1;ratioP1;P1;durP2;ratioP2;P2;SDS_P1;SDS_P2;PMS_P1;PMS_P2;Temp;Humidity;BMP_temperature;BMP_pressure;BME280_temperature;BME280_humidity;BME280_pressure;Samples;Min_cycle;Max_cycle;Signal;HPM_P1;HPM_P2
2022/01/21 00:00:11;;;;;;;17.15;10.13;;;;;;;;;;5014598;28;20010;-94
2022/01/21 00:02:38;;;;;;;17.75;11.20;;;;;;;;;;5014813;28;20093;-93
2022/01/21 00:05:05;;;;;;;16.42;11.48;;;;;;;;;;5002398;28;20137;-93
2022/01/21 00:07:31;;;;;;;16.35;12.65;;;;;;;;;;5016277;28;20124;-95
2022/01/21 00:09:57;;;;;;;20.33;13.93;;;;;;;;;;4994620;28;20018;-95
2022/01/21 00:12:24;;;;;;;21.40;13.73;;;;;;;;;;4992522;28;20030;-92
2022/01/21 00:14:50;;;;;;;13.43;9.50;;;;;;;;;;5013540;28;20021;-93
2022/01/21 00:17:18;;;;;;;15.35;10.85;;;;;;;;;;5017518;28;20028;-93
2022/01/21 00:19:47;;;;;;;21.63;14.32;;;;;;;;;;4994813;28;20026;-92
2022/01/21 00:30:27;;;;;;;30.13;19.25;;;;;;;;;;5014911;28;20037;-93
2022/01/21 00:32:54;;;;;;;21.95;14.50;;;;;;;;;;4996951;28;20149;-91
2022/01/21 00:35:21;;;;;;;14.10;11.02;;;;;;;;;;5015723;28;20041;-92
2022/01/21 00:37:47;;;;;;;40.92;30.45;;;;;;;;;;4992192;28;20033;-93
2022/01/21 00:40:16;;;;;;;18.10;13.05;;;;;;;;;;5016236;28;20018;-93
2022/01/21 00:45:14;;;;;;;11.98;8.25;;;;;;;;;;5028115;28;20026;-92
2022/01/21 00:47:40;;;;;;;24.23;18.95;;;;;;;;;;5012994;28;20088;-93
2022/01/21 00:50:07;;;;;;;16.15;11.68;;;;;;;;;;5007299;28;20023;-94
2022/01/21 00:52:33;;;;;;;21.92;16.58;;;;;;;;;;5012478;28;20018;-92
2022/01/21 00:55:01;;;;;;;31.30;20.92;;;;;;;;;;5025581;28;20014;-93
2022/01/21 00:57:27;;;;;;;43.42;29.85;;;;;;;;;;5006934;28;20026;-93
2022/01/21 00:59:53;;;;;;;45.65;29.85;;;;;;;;;;4991545;28;20073;-94
2022/01/21 01:02:19;;;;;;;40.70;26.23;;;;;;;;;;5014288;28;20034;-93
2022/01/21 01:04:45;;;;;;;39.47;28.63;;;;;;;;;;5015875;28;20062;-93
2022/01/21 01:07:12;;;;;;;35.80;24.08;;;;;;;;;;5013607;28;20034;-93
2022/01/21 01:09:38;;;;;;;42.85;29.17;;;;;;;;;;5013555;28;20022;-93
2022/01/21 01:12:28;;;;;;;40.28;29.80;;;;;;;;;;5012400;28;20033;-92
2022/01/21 01:20:23;;;;;;;16.10;9.80;;;51.50;2227.20;;;;;;5013238;28;20040;-95
2022/01/21 01:23:06;;;;;;;13.73;7.90;;;51.20;2227.20;;;;;;5002595;28;20026;-94
2022/01/21 01:28:16;;;;;;;7.60;4.60;;;26.10;2201.60;;;;;;5023984;28;20096;-96
2022/01/21 01:30:41;;;;;;;6.40;3.20;;;25.70;2201.60;;;;;;5009892;28;20030;-96
2022/01/21 01:33:10;;;;;;;5.43;3.60;;;25.60;2201.60;;;;;;5027979;28;20010;-96
2022/01/21 01:35:44;;;;;;;7.10;3.85;;;25.70;2201.60;;;;;;5032828;28;20030;-96
2022/01/21 01:41:03;;;;;;;5.75;4.18;;;25.60;2201.60;;;;;;5041853;28;19956;-96
2022/01/21 01:51:26;;;;;;;9.20;3.88;;;0.80;2201.60;;;;;;5023814;28;20487;-96
2022/01/21 01:54:03;;;;;;;6.95;3.58;;;0.80;2201.60;;;;;;5014181;28;20431;-96
2022/01/21 01:56:36;;;;;;;5.60;3.90;;;0.70;2201.60;;;;;;5015134;28;20030;-96
2022/01/21 01:59:01;;;;;;;6.38;4.22;;;0.80;2201.60;;;;;;5019891;28;20088;-96
2022/01/21 02:01:28;;;;;;;6.72;3.90;;;25.60;2201.60;;;;;;5024025;28;20026;-96
2022/01/21 02:03:53;;;;;;;6.00;3.50;;;0.80;2201.60;;;;;;5034177;28;20058;-96
2022/01/21 02:06:20;;;;;;;8.65;5.60;;;0.70;2201.60;;;;;;5006096;28;20053;-97
2022/01/21 02:08:46;;;;;;;6.80;4.72;;;0.70;2201.60;;;;;;5044835;28;20022;-93
2022/01/21 02:11:12;;;;;;;8.80;4.35;;;0.90;2201.60;;;;;;5030778;28;20034;-96
2022/01/21 02:13:43;;;;;;;10.00;6.03;;;0.80;2201.60;;;;;;5037305;28;20018;-96
2022/01/21 02:21:34;;;;;;;21.80;10.73;;;25.70;2201.60;;;;;;5018822;28;20076;-96
2022/01/21 02:24:20;;;;;;;14.45;8.13;;;25.60;2201.60;;;;;;5024452;28;20021;-96
2022/01/21 02:26:47;;;;;;;14.23;10.20;;;25.60;2201.60;;;;;;5014416;28;20025;-96
2022/01/21 02:29:26;;;;;;;9.60;6.60;;;25.60;2201.60;;;;;;5027682;28;20068;-96
2022/01/21 02:31:52;;;;;;;9.70;7.30;;;25.60;2201.60;;;;;;5004468;28;20025;-96
2022/01/21 02:34:18;;;;;;;12.63;9.15;;;25.70;2201.60;;;;;;5029925;28;20021;-95
2022/01/21 02:36:43;;;;;;;12.82;7.13;;;25.80;2201.60;;;;;;5023149;28;20493;-96
2022/01/21 02:39:09;;;;;;;8.00;5.00;;;25.60;2201.60;;;;;;5018232;28;20022;-96
2022/01/21 02:41:35;;;;;;;10.93;6.47;;;25.60;2201.60;;;;;;5017694;28;20025;-96
2022/01/21 02:44:01;;;;;;;6.28;4.90;;;25.60;2201.60;;;;;;5039418;28;20026;-96
2022/01/21 02:46:27;;;;;;;6.68;4.15;;;0.90;2201.60;;;;;;5021741;28;20049;-96
2022/01/21 02:48:53;;;;;;;6.25;4.10;;;;;;;;;;5022223;28;20037;-96
2022/01/21 02:51:19;;;;;;;8.77;5.97;;;25.60;2201.60;;;;;;5024643;28;20025;-96
2022/01/21 02:56:14;;;;;;;11.88;6.20;;;0.70;2201.60;;;;;;5020332;28;20022;-96
2022/01/21 02:58:40;;;;;;;9.40;6.18;;;0.70;2201.60;;;;;;5031551;28;20089;-96
2022/01/21 03:01:07;;;;;;;8.48;5.38;;;0.80;2201.60;;;;;;5007682;28;20036;-96
2022/01/21 03:03:33;;;;;;;12.30;7.15;;;0.80;2201.60;;;;;;5004132;28;20037;-96
2022/01/21 03:06:01;;;;;;;11.48;7.55;;;0.80;2201.60;;;;;;5035431;28;20113;-96
2022/01/21 03:08:27;;;;;;;14.63;7.75;;;0.90;2201.60;;;;;;5017469;28;20061;-96
2022/01/21 03:10:53;;;;;;;11.63;7.30;;;0.90;2201.60;;;;;;5021565;28;20108;-96
2022/01/21 03:13:22;;;;;;;10.63;6.82;;;0.90;2201.60;;;;;;5020766;28;20054;-95
2022/01/21 03:15:49;;;;;;;11.90;7.07;;;0.90;2201.60;;;;;;5025975;28;20030;-94
2022/01/21 03:18:15;;;;;;;8.90;6.45;;;25.60;2201.60;;;;;;5021475;28;20033;-96
2022/01/21 03:20:41;;;;;;;8.60;5.53;;;0.90;2201.60;;;;;;5009278;28;20036;-96
2022/01/21 03:23:08;;;;;;;9.32;5.30;;;0.90;2201.60;;;;;;5033975;28;20032;-95
2022/01/21 03:25:34;;;;;;;6.82;4.78;;;0.80;2201.60;;;;;;5036118;28;20022;-96
2022/01/21 03:28:02;;;;;;;11.27;6.18;;;0.80;2201.60;;;;;;5014887;28;20073;-95
2022/01/21 03:30:28;;;;;;;8.15;5.78;;;0.90;2201.60;;;;;;5016699;28;20053;-96
2022/01/21 03:32:53;;;;;;;11.55;6.35;;;0.90;2201.60;;;;;;5034341;28;20018;-96
2022/01/21 03:35:19;;;;;;;10.27;7.75;;;0.90;2201.60;;;;;;5033686;28;20006;-96
2022/01/21 03:37:45;;;;;;;8.90;5.32;;;0.90;2201.60;;;;;;5018089;28;20482;-96
2022/01/21 03:40:11;;;;;;;9.00;4.90;;;0.90;2201.60;;;;;;5013981;28;20032;-95
2022/01/21 03:42:37;;;;;;;11.77;5.70;;;25.60;2201.60;;;;;;5026550;28;20026;-96
2022/01/21 03:45:03;;;;;;;9.75;5.40;;;25.60;2201.60;;;;;;5024302;28;20092;-95
2022/01/21 03:47:29;;;;;;;7.13;3.83;;;25.60;2201.60;;;;;;5021082;28;20033;-96
2022/01/21 03:50:08;;;;;;;9.38;5.32;;;25.60;2201.60;;;;;;5033258;28;20120;-96
2022/01/21 03:52:33;;;;;;;8.82;4.97;;;25.60;2201.60;;;;;;5025251;28;20467;-95
2022/01/21 03:54:59;;;;;;;6.88;2.63;;;25.60;2201.60;;;;;;5015023;28;20032;-96
2022/01/21 03:57:25;;;;;;;6.35;3.10;;;25.70;2201.60;;;;;;5003787;28;20022;-96
2022/01/21 03:59:51;;;;;;;5.60;2.83;;;25.70;2201.60;;;;;;5034344;28;20094;-95
2022/01/21 04:02:16;;;;;;;6.68;3.75;;;25.70;2201.60;;;;;;5029213;28;20037;-96
2022/01/21 04:04:42;;;;;;;4.78;3.45;;;25.70;2201.60;;;;;;5016543;28;20045;-96
2022/01/21 04:07:08;;;;;;;4.75;3.05;;;25.70;2201.60;;;;;;5021850;28;20022;-96
2022/01/21 04:09:34;;;;;;;8.63;3.85;;;25.80;2201.60;;;;;;5023904;28;20038;-95
2022/01/21 04:11:59;;;;;;;2.75;1.90;;;25.70;2201.60;;;;;;5032546;28;20061;-95
2022/01/21 04:14:25;;;;;;;6.40;3.20;;;25.80;2201.60;;;;;;5021483;28;20033;-95
2022/01/21 04:16:51;;;;;;;4.85;3.05;;;25.70;2201.60;;;;;;5023515;28;20026;-95
2022/01/21 04:19:16;;;;;;;8.23;4.00;;;25.70;2201.60;;;;;;5021007;28;20499;-95
2022/01/21 04:21:42;;;;;;;7.10;4.13;;;25.70;2201.60;;;;;;5040204;28;20028;-95
2022/01/21 04:24:09;;;;;;;8.48;4.45;;;25.70;2201.60;;;;;;5028295;28;20372;-96
2022/01/21 04:26:35;;;;;;;5.97;2.88;;;25.70;2201.60;;;;;;5025058;28;20030;-95
2022/01/21 04:29:01;;;;;;;10.35;4.50;;;25.60;2201.60;;;;;;5018886;28;20037;-96
2022/01/21 04:31:26;;;;;;;13.23;7.10;;;25.60;2201.60;;;;;;5000854;28;20048;-96
2022/01/21 04:33:52;;;;;;;16.05;6.78;;;25.60;2201.60;;;;;;5017121;28;20088;-96
2022/01/21 04:36:18;;;;;;;5.13;2.85;;;25.60;2201.60;;;;;;5015744;28;20034;-96
2022/01/21 04:38:44;;;;;;;28.10;14.00;;;25.60;2201.60;;;;;;5001269;28;20084;-96
2022/01/21 04:49:06;;;;;;;;;;;25.60;2201.60;;;;;;5021246;28;20052;-96
2022/01/21 04:51:40;;;;;;;14.52;6.47;;;25.60;2201.60;;;;;;5005618;28;19929;-96
2022/01/21 04:54:06;;;;;;;15.85;8.35;;;25.60;2201.60;;;;;;5038458;28;20022;-96
2022/01/21 04:56:32;;;;;;;15.63;6.70;;;0.90;2201.60;;;;;;5016719;28;20037;-96
2022/01/21 04:58:57;;;;;;;15.10;7.53;;;25.60;2201.60;;;;;;5026701;28;20022;-96
2022/01/21 05:01:23;;;;;;;29.88;17.20;;;25.60;2201.60;;;;;;5023719;28;20045;-96
2022/01/21 05:03:50;;;;;;;19.40;9.57;;;25.60;2201.60;;;;;;5022681;28;20038;-95
2022/01/21 05:06:16;;;;;;;11.27;6.30;;;25.60;2201.60;;;;;;5017339;28;20050;-96
2022/01/21 05:08:51;;;;;;;13.43;7.20;;;25.60;2201.60;;;;;;5018148;28;20049;-96
2022/01/21 05:11:17;;;;;;;29.08;12.50;;;25.60;2201.60;;;;;;5008722;28;20033;-96
2022/01/21 05:13:52;;;;;;;8.77;4.57;;;25.60;2201.60;;;;;;5001804;28;20033;-96
2022/01/21 05:18:54;;;;;;;8.35;5.43;;;25.60;2201.60;;;;;;5039258;28;20030;-96
2022/01/21 05:21:19;;;;;;;13.32;5.38;;;25.70;2201.60;;;;;;5035887;28;20120;-96
2022/01/21 05:23:45;;;;;;;11.07;6.68;;;25.70;2201.60;;;;;;5023636;28;20513;-96
2022/01/21 05:26:12;;;;;;;12.25;6.72;;;25.70;2201.60;;;;;;5010774;28;20376;-95
2022/01/21 05:28:38;;;;;;;11.80;5.82;;;25.70;2201.60;;;;;;5014969;28;20037;-96
2022/01/21 05:31:04;;;;;;;10.32;5.63;;;25.70;2201.60;;;;;;5012137;28;20459;-94
2022/01/21 05:33:29;;;;;;;11.43;5.60;;;25.60;2201.60;;;;;;5017343;28;20129;-96
2022/01/21 05:35:55;;;;;;;14.57;9.50;;;25.60;2201.60;;;;;;5022848;28;20112;-96
2022/01/21 05:38:21;;;;;;;14.68;9.20;;;25.60;2201.60;;;;;;5017936;28;20054;-96
2022/01/21 05:40:47;;;;;;;12.65;9.18;;;25.60;2201.60;;;;;;5009247;28;20032;-96
2022/01/21 05:43:13;;;;;;;10.95;7.53;;;25.60;2201.60;;;;;;5020100;28;20030;-96
2022/01/21 05:48:24;;;;;;;12.80;7.15;;;25.60;2201.60;;;;;;5029297;28;20045;-96
2022/01/21 05:50:49;;;;;;;23.90;11.63;;;25.60;2201.60;;;;;;5016851;28;20026;-96
2022/01/21 05:53:15;;;;;;;13.35;8.73;;;25.60;2201.60;;;;;;5021102;28;20025;-96
2022/01/21 05:55:43;;;;;;;10.00;5.18;;;25.70;2201.60;;;;;;5014904;28;20026;-95
2022/01/21 05:58:11;;;;;;;11.27;5.63;;;25.70;2201.60;;;;;;5030179;28;20018;-95
2022/01/21 06:00:37;;;;;;;12.35;6.78;;;25.70;2201.60;;;;;;5028665;28;20022;-95
2022/01/21 06:03:06;;;;;;;12.13;5.80;;;25.80;2201.60;;;;;;5003581;28;20053;-96
2022/01/21 06:05:33;;;;;;;12.45;8.20;;;25.80;2201.60;;;;;;5017594;28;20056;-96
2022/01/21 06:08:03;;;;;;;13.95;7.80;;;25.90;2201.60;;;;;;5021103;28;20033;-94
2022/01/21 06:10:29;;;;;;;18.67;10.85;;;25.80;2201.60;;;;;;5010450;28;20075;-96
2022/01/21 06:12:55;;;;;;;22.17;12.98;;;25.80;2201.60;;;;;;5015044;28;20026;-95
2022/01/21 06:15:21;;;;;;;17.50;10.88;;;25.80;2201.60;;;;;;5025737;28;20032;-96
2022/01/21 06:17:47;;;;;;;13.52;8.40;;;25.80;2201.60;;;;;;5031446;28;20030;-96
2022/01/21 06:20:13;;;;;;;15.43;8.38;;;25.80;2201.60;;;;;;5034179;28;20052;-94
2022/01/21 06:22:38;;;;;;;15.82;7.70;;;25.90;2201.60;;;;;;5032271;28;20030;-96
2022/01/21 06:25:04;;;;;;;20.05;8.98;;;25.90;2201.60;;;;;;5026663;28;20384;-94
2022/01/21 06:27:32;;;;;;;16.55;8.93;;;25.90;2201.60;;;;;;5027295;28;20116;-96
2022/01/21 06:29:58;;;;;;;11.60;6.45;;;25.90;2201.60;;;;;;5020520;28;20148;-96
2022/01/21 06:32:25;;;;;;;15.32;8.85;;;25.90;2201.60;;;;;;5027567;28;20057;-96
2022/01/21 06:34:51;;;;;;;12.18;7.95;;;25.90;2201.60;;;;;;5019780;28;20033;-96
2022/01/21 06:37:17;;;;;;;19.20;10.18;;;25.90;2201.60;;;;;;5023461;28;20026;-96
2022/01/21 06:39:43;;;;;;;12.93;7.25;;;25.90;2201.60;;;;;;5012785;28;20049;-96
2022/01/21 06:42:10;;;;;;;14.13;8.10;;;25.90;2201.60;;;;;;5023230;28;20026;-96
2022/01/21 06:44:36;;;;;;;12.48;6.82;;;25.90;2201.60;;;;;;5018631;28;20438;-96
2022/01/21 06:47:02;;;;;;;13.40;8.77;;;25.90;2201.60;;;;;;5017348;28;20064;-96
2022/01/21 06:49:28;;;;;;;13.43;8.27;;;26.00;2201.60;;;;;;5024254;28;20042;-96
2022/01/21 06:51:54;;;;;;;16.83;10.00;;;26.00;2201.60;;;;;;5029641;28;20088;-96
2022/01/21 06:54:20;;;;;;;21.30;12.38;;;26.00;2201.60;;;;;;5016297;28;20053;-96
2022/01/21 06:56:45;;;;;;;18.83;11.05;;;26.10;2201.60;;;;;;5020119;28;20033;-96
2022/01/21 06:59:11;;;;;;;20.90;11.73;;;26.10;2201.60;;;;;;5006058;28;20040;-96
2022/01/21 07:01:38;;;;;;;16.10;9.40;;;26.10;2201.60;;;;;;5023497;28;20891;-96
2022/01/21 07:04:04;;;;;;;16.25;10.00;;;26.10;2201.60;;;;;;5028182;28;20796;-96
2022/01/21 07:06:30;;;;;;;16.98;10.82;;;26.10;2201.60;;;;;;5009961;28;20093;-96
2022/01/21 07:08:56;;;;;;;18.73;11.50;;;26.20;2201.60;;;;;;5025942;28;20033;-96
2022/01/21 07:11:22;;;;;;;12.50;7.43;;;26.20;2201.60;;;;;;5018399;28;20038;-96
2022/01/21 07:13:47;;;;;;;14.82;8.52;;;26.20;2201.60;;;;;;5016625;28;20023;-96
2022/01/21 07:16:13;;;;;;;12.20;7.45;;;26.20;2201.60;;;;;;5033780;28;20081;-96
2022/01/21 07:18:39;;;;;;;14.38;7.70;;;26.20;2201.60;;;;;;5029615;28;20033;-96
2022/01/21 07:21:05;;;;;;;15.90;9.38;;;26.20;2201.60;;;;;;5016057;28;20022;-96
2022/01/21 07:23:31;;;;;;;24.00;14.18;;;26.30;2201.60;;;;;;5012727;28;20025;-96
2022/01/21 07:25:57;;;;;;;17.08;10.73;;;26.40;2201.60;;;;;;5028200;28;20029;-96
2022/01/21 07:28:23;;;;;;;20.25;10.48;;;26.50;2201.60;;;;;;5034019;28;20483;-95
2022/01/21 07:30:49;;;;;;;22.17;13.93;;;26.50;2201.60;;;;;;5030460;28;20028;-96
2022/01/21 07:33:14;;;;;;;12.55;8.60;;;51.20;2227.20;;;;;;5015536;28;20022;-95
2022/01/21 07:35:41;;;;;;;21.05;12.55;;;26.50;2201.60;;;;;;5000029;28;20387;-95
2022/01/21 07:38:07;;;;;;;24.40;16.27;;;26.50;2201.60;;;;;;5004159;28;20029;-94
2022/01/21 07:43:08;;;;;;;34.67;20.50;;;51.20;2227.20;;;;;;5177153;22;20032;-95
2022/01/21 07:45:35;;;;;;;22.58;14.13;;;51.20;2227.20;;;;;;5060982;28;20031;-96
2022/01/21 07:48:01;;;;;;;27.35;17.60;;;51.30;2227.20;;;;;;5054797;28;20038;-96
2022/01/21 07:50:26;;;;;;;45.05;23.58;;;51.30;2227.20;;;;;;5052328;28;20397;-96
2022/01/21 07:52:52;;;;;;;36.00;20.73;;;51.30;2227.20;;;;;;5069754;28;20024;-96
2022/01/21 07:55:18;;;;;;;26.95;15.32;;;51.30;2227.20;;;;;;5064460;28;20386;-96
2022/01/21 07:57:46;;;;;;;28.27;16.92;;;51.40;2227.20;;;;;;5056364;28;20025;-96
2022/01/21 08:00:13;;;;;;;32.15;18.25;;;51.50;2227.20;;;;;;5060952;28;20040;-96
2022/01/21 08:02:39;;;;;;;22.50;12.77;;;51.50;2227.20;;;;;;5062276;28;20025;-96
2022/01/21 08:05:05;;;;;;;35.10;22.13;;;51.60;2227.20;;;;;;5061833;28;20056;-96
2022/01/21 08:10:07;;;;;;;27.77;17.23;;;51.70;2227.20;;;;;;5879617;22;20060;-96
2022/01/21 08:12:39;;;;;;;26.52;15.80;;;51.80;2227.20;;;;;;5048462;28;20030;-96
2022/01/21 08:15:48;;;;;;;25.33;16.25;;;52.00;2227.20;;;;;;5030021;28;20040;-96
2022/01/21 08:21:21;;;;;;;42.33;24.73;;;52.00;2201.60;;;;;;5042869;28;20035;-95
2022/01/21 08:23:51;;;;;;;41.80;18.77;;;76.80;2176.00;;;;;;5022026;28;20025;-96
2022/01/21 08:26:30;;;;;;;30.83;20.80;;;76.90;2124.80;;;;;;5019941;28;20036;-96
2022/01/21 08:28:56;;;;;;;24.90;14.35;;;76.90;2099.20;;;;;;5020610;28;20034;-96
2022/01/21 08:31:23;;;;;;;18.88;9.05;;;76.80;2124.80;;;;;;5031563;28;20057;-96
2022/01/21 08:33:50;;;;;;;21.80;12.52;;;76.80;2073.60;;;;;;5036738;28;20076;-96
2022/01/21 08:36:24;;;;;;;23.95;13.73;;;77.00;2073.60;;;;;;5033110;28;20025;-95
2022/01/21 08:39:08;;;;;;;28.90;16.25;;;77.10;2073.60;;;;;;5038207;28;20029;-96
2022/01/21 08:44:56;;;;;;;22.95;15.05;;;77.00;2176.00;;;;;;5037499;28;20064;-96
2022/01/21 08:47:59;;;;;;;33.08;18.95;;;52.00;2201.60;;;;;;5020715;28;20030;-96
2022/01/21 08:51:00;;;;;;;43.50;27.70;;;76.90;2201.60;;;;;;5020548;28;20030;-96
2022/01/21 08:54:21;;;;;;;38.25;23.30;;;76.80;2227.20;;;;;;5020275;28;20029;-95
2022/01/21 08:56:50;;;;;;;43.90;22.92;;;76.80;2227.20;;;;;;5019798;28;20033;-96
2022/01/21 08:59:17;;;;;;;32.35;15.30;;;52.00;2124.80;;;;;;5024322;28;20025;-96
2022/01/21 09:01:44;;;;;;;16.30;9.02;;;76.80;2073.60;;;;;;5024838;28;20030;-96
2022/01/21 09:04:12;;;;;;;15.30;6.93;;;76.80;1945.60;;;;;;5030983;28;20025;-96
2022/01/21 09:06:38;;;;;;;25.38;15.82;;;52.10;1945.60;;;;;;5024531;28;20032;-96
2022/01/21 09:09:04;;;;;;;15.90;7.75;;;77.10;1996.80;;;;;;5020817;28;20371;-96
2022/01/21 09:11:31;;;;;;;22.30;13.07;;;76.90;1920.00;;;;;;5025413;28;20084;-95
2022/01/21 09:13:58;;;;;;;21.05;11.93;;;76.90;1971.20;;;;;;5037146;28;20034;-96
2022/01/21 09:16:24;;;;;;;19.23;12.70;;;76.90;1920.00;;;;;;5158704;23;20147;-96
2022/01/21 09:18:55;;;;;;;20.05;6.25;;;77.00;1894.40;;;;;;5034272;28;20025;-94
2022/01/21 09:21:23;;;;;;;14.00;8.55;;;77.00;1894.40;;;;;;5019166;28;20483;-93
2022/01/21 09:23:50;;;;;;;12.95;6.07;;;77.10;1843.20;;;;;;5019232;28;20188;-93
2022/01/21 09:26:17;;;;;;;18.10;10.23;;;77.00;1817.60;;;;;;5020145;28;20036;-93
2022/01/21 09:29:17;;;;;;;12.60;7.13;;;77.20;1894.40;;;;;;5018537;28;20120;-94
2022/01/21 09:31:48;;;;;;;12.13;5.40;;;77.10;1868.80;;;;;;5017661;28;20124;-95
2022/01/21 09:41:05;;;;;;;13.05;7.35;;;76.90;1920.00;;;;;;5041179;28;20095;-94
2022/01/21 09:43:33;;;;;;;12.85;7.45;;;77.30;1996.80;;;;;;5018210;28;20052;-95
2022/01/21 09:46:04;;;;;;;13.82;8.57;;;77.20;1945.60;;;;;;5018717;28;20091;-96
2022/01/21 09:48:36;;;;;;;13.65;6.80;;;77.40;1920.00;;;;;;5014737;28;20038;-93
2022/01/21 09:51:02;;;;;;;24.02;11.25;;;77.20;1971.20;;;;;;5014473;28;20080;-94
2022/01/21 09:53:59;;;;;;;24.33;12.40;;;77.30;1996.80;;;;;;5013855;28;20025;-93
2022/01/21 09:56:39;;;;;;;13.55;7.88;;;77.30;1945.60;;;;;;5015476;28;20038;-94
2022/01/21 10:12:48;;;;;;;9.75;6.13;;;77.30;1843.20;;;;;;5015289;28;20071;-92
2022/01/21 10:15:15;;;;;;;14.55;7.53;;;77.50;1894.40;;;;;;5015330;28;20050;-94
2022/01/21 10:24:49;;;;;;;15.48;8.55;;;102.40;1664.00;;;;;;5016041;28;20101;-95
2022/01/21 10:31:25;;;;;;;6.35;3.80;;;102.50;1587.20;;;;;;4982475;28;20100;-93
2022/01/21 10:41:18;;;;;;;3.38;2.20;;;102.50;1484.80;;;;;;5020060;28;20091;-92
2022/01/21 11:55:53;;;;;;;9.65;5.05;;;;;;;;;;5734329;23;20122;-96
2022/01/21 12:12:14;;;;;;;10.68;6.40;;;;;;;;;;5801132;23;20046;-96
2022/01/21 12:14:53;;;;;;;10.60;4.95;;;;;;;;;;4987458;28;20030;-96
2022/01/21 14:56:05;;;;;;;13.68;7.57;;;26.30;1638.40;;;;;;6099099;23;20017;-95
2022/01/21 14:58:32;;;;;;;10.43;6.20;;;51.20;1664.00;;;;;;4976455;28;20405;-95
2022/01/21 16:21:42;;;;;;;24.25;11.65;;;0.20;1664.00;;;;;;5113688;23;19964;-96
2022/01/21 16:37:15;;;;;;;29.27;16.45;;;0.10;1715.20;;;;;;5217109;23;20055;-96
2022/01/21 16:40:06;;;;;;;34.22;16.88;;;0.10;1715.20;;;;;;4982116;28;20035;-95
2022/01/21 17:44:45;;;;;;;;;;;12.90;1587.20;;;;;;5971110;23;20931;-96
